sensor_id;sensor_type;location;lat;lon;timestamp;P1;durP1;ratioP1;P2;durP2;ratioP2
1004;SDS011;491;53.480;10.174;2022-09-09T00:00:53;15.20;;;7.53;;
1004;SDS011;491;53.480;10.174;2022-09-09T00:03:43;9.23;;;7.70;;
1004;SDS011;491;53.480;10.174;2022-09-09T00:11:47;24.83;;;7.93;;
1004;SDS011;491;53.480;10.174;2022-09-09T00:14:39;18.27;;;7.40;;
1004;SDS011;491;53.480;10.174;2022-09-09T00:19:59;14.80;;;7.20;;
1004;SDS011;491;53.480;10.174;2022-09-09T00:22:29;15.20;;;7.50;;
1004;SDS011;491;53.480;10.174;2022-09-09T00:25:02;16.10;;;7.90;;
1004;SDS011;491;53.480;10.174;2022-09-09T00:27:47;29.67;;;7.30;;
1004;SDS011;491;53.480;10.174;2022-09-09T00:30:16;16.93;;;9.43;;
1004;SDS011;491;53.480;10.174;2022-09-09T00:32:44;13.13;;;7.97;;
1004;SDS011;491;53.480;10.174;2022-09-09T00:38:08;23.70;;;8.53;;
1004;SDS011;491;53.480;10.174;2022-09-09T00:40:50;11.60;;;6.80;;
1004;SDS011;491;53.480;10.174;2022-09-09T00:48:18;23.33;;;9.00;;
1004;SDS011;491;53.480;10.174;2022-09-09T00:56:14;23.67;;;8.37;;
1004;SDS011;491;53.480;10.174;2022-09-09T00:58:49;12.37;;;8.07;;
1004;SDS011;491;53.480;10.174;2022-09-09T01:01:35;14.33;;;8.03;;
1004;SDS011;491;53.480;10.174;2022-09-09T01:04:04;15.47;;;8.27;;
1004;SDS011;491;53.480;10.174;2022-09-09T01:06:36;14.33;;;8.23;;
1004;SDS011;491;53.480;10.174;2022-09-09T01:09:17;13.70;;;9.33;;
1004;SDS011;491;53.480;10.174;2022-09-09T01:14:50;11.83;;;7.90;;
1004;SDS011;491;53.480;10.174;2022-09-09T01:17:21;13.50;;;8.90;;
1004;SDS011;491;53.480;10.174;2022-09-09T01:20:10;14.57;;;9.47;;
1004;SDS011;491;53.480;10.174;2022-09-09T01:28:09;10.80;;;7.47;;
1004;SDS011;491;53.480;10.174;2022-09-09T01:30:46;19.73;;;8.13;;
1004;SDS011;491;53.480;10.174;2022-09-09T01:33:15;13.37;;;8.67;;
1004;SDS011;491;53.480;10.174;2022-09-09T01:35:48;11.27;;;8.77;;
1004;SDS011;491;53.480;10.174;2022-09-09T01:38:49;12.67;;;7.70;;
1004;SDS011;491;53.480;10.174;2022-09-09T01:41:15;17.80;;;8.67;;
1004;SDS011;491;53.480;10.174;2022-09-09T01:43:40;14.77;;;8.80;;
1004;SDS011;491;53.480;10.174;2022-09-09T01:46:06;14.73;;;9.10;;
1004;SDS011;491;53.480;10.174;2022-09-09T01:48:32;18.60;;;8.07;;
1004;SDS011;491;53.480;10.174;2022-09-09T01:50:58;17.40;;;7.30;;
1004;SDS011;491;53.480;10.174;2022-09-09T01:53:24;20.40;;;7.57;;
1004;SDS011;491;53.480;10.174;2022-09-09T02:01:37;16.03;;;7.73;;
1004;SDS011;491;53.480;10.174;2022-09-09T02:04:20;22.50;;;7.30;;
1004;SDS011;491;53.480;10.174;2022-09-09T02:06:57;19.33;;;8.70;;
1004;SDS011;491;53.480;10.174;2022-09-09T02:09:24;23.90;;;7.87;;
1004;SDS011;491;53.480;10.174;2022-09-09T02:11:54;21.93;;;8.20;;
1004;SDS011;491;53.480;10.174;2022-09-09T02:14:27;22.67;;;8.70;;
1004;SDS011;491;53.480;10.174;2022-09-09T02:17:00;21.33;;;8.73;;
1004;SDS011;491;53.480;10.174;2022-09-09T02:19:32;25.00;;;8.93;;
1004;SDS011;491;53.480;10.174;2022-09-09T02:22:04;49.10;;;9.77;;
1004;SDS011;491;53.480;10.174;2022-09-09T02:24:30;27.80;;;9.00;;
1004;SDS011;491;53.480;10.174;2022-09-09T02:26:59;17.83;;;7.87;;
1004;SDS011;491;53.480;10.174;2022-09-09T02:29:33;12.63;;;6.33;;
1004;SDS011;491;53.480;10.174;2022-09-09T02:32:03;11.70;;;7.30;;
1004;SDS011;491;53.480;10.174;2022-09-09T02:34:33;12.10;;;6.13;;
1004;SDS011;491;53.480;10.174;2022-09-09T02:37:04;17.77;;;7.70;;
1004;SDS011;491;53.480;10.174;2022-09-09T02:39:33;10.90;;;6.40;;
1004;SDS011;491;53.480;10.174;2022-09-09T02:41:58;13.90;;;7.20;;
1004;SDS011;491;53.480;10.174;2022-09-09T02:44:24;14.10;;;7.37;;
1004;SDS011;491;53.480;10.174;2022-09-09T02:49:40;18.40;;;7.20;;
1004;SDS011;491;53.480;10.174;2022-09-09T02:52:19;9.50;;;6.20;;
1004;SDS011;491;53.480;10.174;2022-09-09T02:54:54;16.40;;;6.03;;
1004;SDS011;491;53.480;10.174;2022-09-09T02:57:25;14.23;;;5.80;;
1004;SDS011;491;53.480;10.174;2022-09-09T02:59:56;12.70;;;5.60;;
1004;SDS011;491;53.480;10.174;2022-09-09T03:02:23;8.17;;;5.67;;
1004;SDS011;491;53.480;10.174;2022-09-09T03:04:50;9.17;;;6.50;;
1004;SDS011;491;53.480;10.174;2022-09-09T03:07:17;19.33;;;7.40;;
1004;SDS011;491;53.480;10.174;2022-09-09T03:09:43;11.30;;;6.50;;
1004;SDS011;491;53.480;10.174;2022-09-09T03:12:09;10.10;;;5.53;;
1004;SDS011;491;53.480;10.174;2022-09-09T03:14:36;9.27;;;6.20;;
1004;SDS011;491;53.480;10.174;2022-09-09T03:17:03;11.80;;;7.47;;
1004;SDS011;491;53.480;10.174;2022-09-09T03:19:29;17.13;;;7.23;;
1004;SDS011;491;53.480;10.174;2022-09-09T03:21:55;15.83;;;7.90;;
1004;SDS011;491;53.480;10.174;2022-09-09T03:24:20;8.80;;;5.73;;
1004;SDS011;491;53.480;10.174;2022-09-09T03:26:47;15.40;;;7.57;;
1004;SDS011;491;53.480;10.174;2022-09-09T03:29:13;10.63;;;6.67;;
1004;SDS011;491;53.480;10.174;2022-09-09T03:31:39;11.57;;;6.53;;
1004;SDS011;491;53.480;10.174;2022-09-09T03:34:05;12.03;;;6.70;;
1004;SDS011;491;53.480;10.174;2022-09-09T03:36:31;15.07;;;6.33;;
1004;SDS011;491;53.480;10.174;2022-09-09T03:38:57;13.37;;;7.50;;
1004;SDS011;491;53.480;10.174;2022-09-09T03:41:26;12.57;;;5.93;;
1004;SDS011;491;53.480;10.174;2022-09-09T03:43:52;10.47;;;5.37;;
1004;SDS011;491;53.480;10.174;2022-09-09T03:46:19;8.47;;;5.30;;
1004;SDS011;491;53.480;10.174;2022-09-09T03:48:45;13.83;;;5.10;;
1004;SDS011;491;53.480;10.174;2022-09-09T03:51:11;12.37;;;4.37;;
1004;SDS011;491;53.480;10.174;2022-09-09T03:53:46;9.27;;;6.10;;
1004;SDS011;491;53.480;10.174;2022-09-09T03:56:11;17.47;;;6.00;;
1004;SDS011;491;53.480;10.174;2022-09-09T03:58:43;11.57;;;6.23;;
1004;SDS011;491;53.480;10.174;2022-09-09T04:01:09;8.23;;;5.17;;
1004;SDS011;491;53.480;10.174;2022-09-09T04:03:38;13.03;;;6.37;;
1004;SDS011;491;53.480;10.174;2022-09-09T04:06:07;10.60;;;4.90;;
1004;SDS011;491;53.480;10.174;2022-09-09T04:08:34;5.97;;;4.20;;
1004;SDS011;491;53.480;10.174;2022-09-09T04:11:01;8.03;;;6.13;;
1004;SDS011;491;53.480;10.174;2022-09-09T04:13:31;16.43;;;7.73;;
1004;SDS011;491;53.480;10.174;2022-09-09T04:16:02;11.77;;;5.90;;
1004;SDS011;491;53.480;10.174;2022-09-09T04:18:28;10.00;;;6.70;;
1004;SDS011;491;53.480;10.174;2022-09-09T04:20:54;16.63;;;7.03;;
1004;SDS011;491;53.480;10.174;2022-09-09T04:23:22;10.07;;;5.10;;
1004;SDS011;491;53.480;10.174;2022-09-09T04:25:52;8.60;;;5.73;;
1004;SDS011;491;53.480;10.174;2022-09-09T04:30:48;8.20;;;5.50;;
1004;SDS011;491;53.480;10.174;2022-09-09T04:33:13;9.37;;;6.20;;
1004;SDS011;491;53.480;10.174;2022-09-09T04:35:47;11.00;;;5.70;;
1004;SDS011;491;53.480;10.174;2022-09-09T04:38:14;9.63;;;6.50;;
1004;SDS011;491;53.480;10.174;2022-09-09T04:40:42;8.87;;;5.77;;
1004;SDS011;491;53.480;10.174;2022-09-09T04:43:08;9.10;;;6.77;;
1004;SDS011;491;53.480;10.174;2022-09-09T04:45:34;10.33;;;6.80;;
1004;SDS011;491;53.480;10.174;2022-09-09T04:48:00;9.80;;;6.00;;
1004;SDS011;491;53.480;10.174;2022-09-09T04:50:27;10.00;;;6.73;;
1004;SDS011;491;53.480;10.174;2022-09-09T04:52:53;8.47;;;6.00;;
1004;SDS011;491;53.480;10.174;2022-09-09T04:55:18;9.60;;;6.73;;
1004;SDS011;491;53.480;10.174;2022-09-09T04:57:44;9.10;;;6.90;;
1004;SDS011;491;53.480;10.174;2022-09-09T05:00:10;9.33;;;7.33;;
1004;SDS011;491;53.480;10.174;2022-09-09T05:02:37;9.77;;;7.23;;
1004;SDS011;491;53.480;10.174;2022-09-09T05:05:03;10.87;;;6.40;;
1004;SDS011;491;53.480;10.174;2022-09-09T05:07:32;9.50;;;6.37;;
1004;SDS011;491;53.480;10.174;2022-09-09T05:09:57;8.70;;;5.07;;
1004;SDS011;491;53.480;10.174;2022-09-09T05:12:30;9.20;;;5.97;;
1004;SDS011;491;53.480;10.174;2022-09-09T05:14:56;8.77;;;6.07;;
1004;SDS011;491;53.480;10.174;2022-09-09T05:17:22;8.20;;;6.37;;
1004;SDS011;491;53.480;10.174;2022-09-09T05:19:48;9.10;;;6.00;;
1004;SDS011;491;53.480;10.174;2022-09-09T05:22:17;7.17;;;5.47;;
1004;SDS011;491;53.480;10.174;2022-09-09T05:24:48;9.03;;;6.20;;
1004;SDS011;491;53.480;10.174;2022-09-09T05:27:17;9.70;;;6.30;;
1004;SDS011;491;53.480;10.174;2022-09-09T05:29:44;8.80;;;5.80;;
1004;SDS011;491;53.480;10.174;2022-09-09T05:32:10;9.83;;;6.13;;
1004;SDS011;491;53.480;10.174;2022-09-09T05:34:35;9.77;;;7.10;;
1004;SDS011;491;53.480;10.174;2022-09-09T05:37:02;6.80;;;5.03;;
1004;SDS011;491;53.480;10.174;2022-09-09T05:39:32;7.90;;;4.70;;
1004;SDS011;491;53.480;10.174;2022-09-09T05:41:57;7.30;;;5.67;;
1004;SDS011;491;53.480;10.174;2022-09-09T05:44:23;9.03;;;5.40;;
1004;SDS011;491;53.480;10.174;2022-09-09T05:46:52;8.90;;;6.07;;
1004;SDS011;491;53.480;10.174;2022-09-09T05:49:19;5.87;;;4.57;;
1004;SDS011;491;53.480;10.174;2022-09-09T05:51:44;8.20;;;5.60;;
1004;SDS011;491;53.480;10.174;2022-09-09T05:54:10;7.77;;;5.30;;
1004;SDS011;491;53.480;10.174;2022-09-09T05:56:35;9.80;;;5.17;;
1004;SDS011;491;53.480;10.174;2022-09-09T05:59:01;8.33;;;5.20;;
1004;SDS011;491;53.480;10.174;2022-09-09T06:01:28;8.53;;;5.47;;
1004;SDS011;491;53.480;10.174;2022-09-09T06:03:56;7.30;;;5.03;;
1004;SDS011;491;53.480;10.174;2022-09-09T06:06:26;8.27;;;5.23;;
1004;SDS011;491;53.480;10.174;2022-09-09T06:08:55;6.73;;;4.63;;
1004;SDS011;491;53.480;10.174;2022-09-09T06:11:25;5.23;;;4.30;;
1004;SDS011;491;53.480;10.174;2022-09-09T06:13:56;7.93;;;5.10;;
1004;SDS011;491;53.480;10.174;2022-09-09T06:16:22;5.90;;;4.47;;
1004;SDS011;491;53.480;10.174;2022-09-09T06:18:49;5.63;;;4.00;;
1004;SDS011;491;53.480;10.174;2022-09-09T06:21:16;6.30;;;3.77;;
1004;SDS011;491;53.480;10.174;2022-09-09T06:23:43;7.70;;;4.97;;
1004;SDS011;491;53.480;10.174;2022-09-09T06:26:14;5.40;;;4.03;;
1004;SDS011;491;53.480;10.174;2022-09-09T06:28:44;6.27;;;4.73;;
1004;SDS011;491;53.480;10.174;2022-09-09T06:31:11;6.33;;;5.00;;
1004;SDS011;491;53.480;10.174;2022-09-09T06:33:38;5.00;;;3.27;;
1004;SDS011;491;53.480;10.174;2022-09-09T06:36:06;5.43;;;3.87;;
1004;SDS011;491;53.480;10.174;2022-09-09T06:38:35;5.53;;;4.30;;
1004;SDS011;491;53.480;10.174;2022-09-09T06:41:00;6.23;;;4.77;;
1004;SDS011;491;53.480;10.174;2022-09-09T06:43:26;5.17;;;4.10;;
1004;SDS011;491;53.480;10.174;2022-09-09T06:45:53;5.20;;;3.93;;
1004;SDS011;491;53.480;10.174;2022-09-09T06:48:20;3.20;;;2.80;;
1004;SDS011;491;53.480;10.174;2022-09-09T06:50:45;4.30;;;2.70;;
1004;SDS011;491;53.480;10.174;2022-09-09T06:53:11;5.00;;;2.80;;
1004;SDS011;491;53.480;10.174;2022-09-09T06:55:36;5.00;;;3.33;;
1004;SDS011;491;53.480;10.174;2022-09-09T06:58:02;3.47;;;3.10;;
1004;SDS011;491;53.480;10.174;2022-09-09T07:00:33;2.70;;;2.30;;
1004;SDS011;491;53.480;10.174;2022-09-09T07:03:02;6.03;;;2.53;;
1004;SDS011;491;53.480;10.174;2022-09-09T07:05:31;4.13;;;2.40;;
1004;SDS011;491;53.480;10.174;2022-09-09T07:07:56;3.93;;;2.30;;
1004;SDS011;491;53.480;10.174;2022-09-09T07:10:22;3.33;;;2.33;;
1004;SDS011;491;53.480;10.174;2022-09-09T07:12:53;3.60;;;2.10;;
1004;SDS011;491;53.480;10.174;2022-09-09T07:15:19;3.00;;;2.43;;
1004;SDS011;491;53.480;10.174;2022-09-09T07:17:49;3.63;;;2.20;;
1004;SDS011;491;53.480;10.174;2022-09-09T07:20:14;7.40;;;2.50;;
1004;SDS011;491;53.480;10.174;2022-09-09T07:22:40;1.87;;;1.67;;
1004;SDS011;491;53.480;10.174;2022-09-09T07:25:06;2.30;;;1.57;;
1004;SDS011;491;53.480;10.174;2022-09-09T07:27:32;3.60;;;1.33;;
1004;SDS011;491;53.480;10.174;2022-09-09T07:29:58;3.40;;;1.33;;
1004;SDS011;491;53.480;10.174;2022-09-09T07:32:24;2.50;;;1.13;;
1004;SDS011;491;53.480;10.174;2022-09-09T07:34:50;2.80;;;1.37;;
1004;SDS011;491;53.480;10.174;2022-09-09T07:37:16;1.60;;;0.97;;
1004;SDS011;491;53.480;10.174;2022-09-09T07:39:42;1.30;;;1.00;;
1004;SDS011;491;53.480;10.174;2022-09-09T07:42:08;0.90;;;0.60;;
1004;SDS011;491;53.480;10.174;2022-09-09T07:44:36;1.40;;;0.40;;
1004;SDS011;491;53.480;10.174;2022-09-09T07:47:04;1.30;;;0.70;;
1004;SDS011;491;53.480;10.174;2022-09-09T07:49:29;1.57;;;0.83;;
1004;SDS011;491;53.480;10.174;2022-09-09T07:51:55;3.03;;;0.30;;
1004;SDS011;491;53.480;10.174;2022-09-09T07:54:20;1.10;;;0.30;;
1004;SDS011;491;53.480;10.174;2022-09-09T07:56:48;0.83;;;0.47;;
1004;SDS011;491;53.480;10.174;2022-09-09T07:59:14;1.60;;;0.30;;
1004;SDS011;491;53.480;10.174;2022-09-09T08:01:45;1.23;;;0.40;;
1004;SDS011;491;53.480;10.174;2022-09-09T08:04:14;2.20;;;0.60;;
1004;SDS011;491;53.480;10.174;2022-09-09T08:06:47;0.80;;;0.40;;
1004;SDS011;491;53.480;10.174;2022-09-09T08:09:15;2.13;;;0.60;;
1004;SDS011;491;53.480;10.174;2022-09-09T08:11:41;1.13;;;0.40;;
1004;SDS011;491;53.480;10.174;2022-09-09T08:14:08;1.60;;;0.43;;
1004;SDS011;491;53.480;10.174;2022-09-09T08:16:37;1.80;;;0.63;;
1004;SDS011;491;53.480;10.174;2022-09-09T08:19:07;2.00;;;0.60;;
1004;SDS011;491;53.480;10.174;2022-09-09T08:21:34;1.33;;;0.47;;
1004;SDS011;491;53.480;10.174;2022-09-09T08:24:01;0.97;;;0.47;;
1004;SDS011;491;53.480;10.174;2022-09-09T08:26:28;0.70;;;0.27;;
1004;SDS011;491;53.480;10.174;2022-09-09T08:28:59;1.90;;;0.60;;
1004;SDS011;491;53.480;10.174;2022-09-09T08:31:26;2.00;;;0.30;;
1004;SDS011;491;53.480;10.174;2022-09-09T08:33:54;1.37;;;0.57;;
1004;SDS011;491;53.480;10.174;2022-09-09T08:36:21;0.83;;;0.30;;
1004;SDS011;491;53.480;10.174;2022-09-09T08:38:49;1.13;;;0.60;;
1004;SDS011;491;53.480;10.174;2022-09-09T08:55:26;1.23;;;0.57;;
1004;SDS011;491;53.480;10.174;2022-09-09T08:58:11;2.10;;;0.70;;
1004;SDS011;491;53.480;10.174;2022-09-09T09:03:30;1.13;;;0.57;;
1004;SDS011;491;53.480;10.174;2022-09-09T09:06:25;1.00;;;0.30;;
1004;SDS011;491;53.480;10.174;2022-09-09T09:12:18;1.43;;;0.40;;
1004;SDS011;491;53.480;10.174;2022-09-09T09:14:46;2.90;;;0.50;;
1004;SDS011;491;53.480;10.174;2022-09-09T09:17:17;1.10;;;0.50;;
1004;SDS011;491;53.480;10.174;2022-09-09T09:19:45;1.17;;;0.30;;
1004;SDS011;491;53.480;10.174;2022-09-09T09:22:22;1.43;;;0.67;;
1004;SDS011;491;53.480;10.174;2022-09-09T09:25:00;1.17;;;0.30;;
1004;SDS011;491;53.480;10.174;2022-09-09T09:27:34;1.23;;;0.30;;
1004;SDS011;491;53.480;10.174;2022-09-09T09:30:13;1.30;;;0.40;;
1004;SDS011;491;53.480;10.174;2022-09-09T09:32:49;0.53;;;0.30;;
1004;SDS011;491;53.480;10.174;2022-09-09T09:35:22;5.60;;;0.77;;
1004;SDS011;491;53.480;10.174;2022-09-09T09:37:48;0.70;;;0.40;;
1004;SDS011;491;53.480;10.174;2022-09-09T09:40:15;1.50;;;0.37;;
1004;SDS011;491;53.480;10.174;2022-09-09T09:42:55;1.60;;;0.37;;
1004;SDS011;491;53.480;10.174;2022-09-09T09:45:32;0.60;;;0.20;;
1004;SDS011;491;53.480;10.174;2022-09-09T09:48:01;0.90;;;0.30;;
1004;SDS011;491;53.480;10.174;2022-09-09T09:50:33;1.17;;;0.50;;
1004;SDS011;491;53.480;10.174;2022-09-09T09:53:00;0.70;;;0.20;;
1004;SDS011;491;53.480;10.174;2022-09-09T09:55:29;0.70;;;0.70;;
1004;SDS011;491;53.480;10.174;2022-09-09T09:58:03;1.33;;;0.30;;
1004;SDS011;491;53.480;10.174;2022-09-09T10:00:30;0.90;;;0.30;;
1004;SDS011;491;53.480;10.174;2022-09-09T10:02:59;2.40;;;0.70;;
1004;SDS011;491;53.480;10.174;2022-09-09T10:05:25;2.33;;;0.30;;
1004;SDS011;491;53.480;10.174;2022-09-09T10:08:00;1.37;;;0.37;;
1004;SDS011;491;53.480;10.174;2022-09-09T10:19:20;0.70;;;0.40;;
1004;SDS011;491;53.480;10.174;2022-09-09T10:27:46;1.20;;;0.40;;
1004;SDS011;491;53.480;10.174;2022-09-09T10:30:23;1.90;;;0.30;;
1004;SDS011;491;53.480;10.174;2022-09-09T10:36:08;2.53;;;0.70;;
1004;SDS011;491;53.480;10.174;2022-09-09T10:38:42;1.03;;;0.60;;
1004;SDS011;491;53.480;10.174;2022-09-09T10:52:48;0.60;;;0.20;;
1004;SDS011;491;53.480;10.174;2022-09-09T10:55:46;0.60;;;0.33;;
1004;SDS011;491;53.480;10.174;2022-09-09T10:58:23;1.80;;;0.67;;
1004;SDS011;491;53.480;10.174;2022-09-09T11:01:00;0.40;;;0.33;;
1004;SDS011;491;53.480;10.174;2022-09-09T11:03:32;1.40;;;0.70;;
1004;SDS011;491;53.480;10.174;2022-09-09T11:06:01;2.07;;;0.40;;
1004;SDS011;491;53.480;10.174;2022-09-09T11:08:30;3.17;;;0.60;;
1004;SDS011;491;53.480;10.174;2022-09-09T11:11:03;1.43;;;0.40;;
1004;SDS011;491;53.480;10.174;2022-09-09T11:16:21;2.80;;;0.60;;
1004;SDS011;491;53.480;10.174;2022-09-09T11:18:57;1.93;;;0.47;;
1004;SDS011;491;53.480;10.174;2022-09-09T11:21:34;1.37;;;0.50;;
1004;SDS011;491;53.480;10.174;2022-09-09T11:24:13;2.60;;;0.70;;
1004;SDS011;491;53.480;10.174;2022-09-09T11:26:59;1.10;;;0.30;;
1004;SDS011;491;53.480;10.174;2022-09-09T11:29:42;1.37;;;0.27;;
1004;SDS011;491;53.480;10.174;2022-09-09T11:38:19;1.57;;;0.40;;
1004;SDS011;491;53.480;10.174;2022-09-09T11:41:01;3.13;;;0.50;;
1004;SDS011;491;53.480;10.174;2022-09-09T11:46:10;1.00;;;0.30;;
1004;SDS011;491;53.480;10.174;2022-09-09T11:51:08;2.10;;;0.50;;
1004;SDS011;491;53.480;10.174;2022-09-09T11:53:54;1.70;;;0.50;;
1004;SDS011;491;53.480;10.174;2022-09-09T11:56:30;1.53;;;0.30;;
1004;SDS011;491;53.480;10.174;2022-09-09T11:58:59;1.73;;;0.67;;
1004;SDS011;491;53.480;10.174;2022-09-09T12:01:35;0.70;;;0.40;;
1004;SDS011;491;53.480;10.174;2022-09-09T12:04:07;0.93;;;0.23;;
1004;SDS011;491;53.480;10.174;2022-09-09T12:06:43;0.90;;;0.20;;
1004;SDS011;491;53.480;10.174;2022-09-09T12:09:29;0.80;;;0.50;;
1004;SDS011;491;53.480;10.174;2022-09-09T12:17:09;0.90;;;0.40;;
1004;SDS011;491;53.480;10.174;2022-09-09T12:19:43;0.60;;;0.30;;
1004;SDS011;491;53.480;10.174;2022-09-09T12:25:04;1.43;;;0.40;;
1004;SDS011;491;53.480;10.174;2022-09-09T12:27:34;1.40;;;0.80;;
1004;SDS011;491;53.480;10.174;2022-09-09T12:30:14;1.30;;;0.50;;
1004;SDS011;491;53.480;10.174;2022-09-09T12:32:40;2.50;;;0.77;;
1004;SDS011;491;53.480;10.174;2022-09-09T12:35:10;1.37;;;0.50;;
1004;SDS011;491;53.480;10.174;2022-09-09T12:37:54;1.00;;;0.30;;
1004;SDS011;491;53.480;10.174;2022-09-09T12:40:24;2.70;;;0.70;;
1004;SDS011;491;53.480;10.174;2022-09-09T12:42:54;0.80;;;0.53;;
1004;SDS011;491;53.480;10.174;2022-09-09T12:45:21;3.20;;;0.87;;
1004;SDS011;491;53.480;10.174;2022-09-09T12:47:51;3.07;;;1.17;;
1004;SDS011;491;53.480;10.174;2022-09-09T12:50:29;2.63;;;0.60;;
1004;SDS011;491;53.480;10.174;2022-09-09T12:53:02;1.53;;;0.40;;
1004;SDS011;491;53.480;10.174;2022-09-09T12:55:38;0.93;;;0.50;;
1004;SDS011;491;53.480;10.174;2022-09-09T12:58:05;0.90;;;0.30;;
1004;SDS011;491;53.480;10.174;2022-09-09T13:00:31;1.00;;;0.53;;
1004;SDS011;491;53.480;10.174;2022-09-09T13:03:01;1.00;;;0.57;;
1004;SDS011;491;53.480;10.174;2022-09-09T13:05:38;1.60;;;0.50;;
1004;SDS011;491;53.480;10.174;2022-09-09T13:08:05;1.77;;;0.63;;
1004;SDS011;491;53.480;10.174;2022-09-09T13:10:34;2.00;;;0.87;;
1004;SDS011;491;53.480;10.174;2022-09-09T13:13:04;1.43;;;0.60;;
1004;SDS011;491;53.480;10.174;2022-09-09T13:15:47;1.00;;;0.70;;
1004;SDS011;491;53.480;10.174;2022-09-09T13:18:17;1.73;;;0.50;;
1004;SDS011;491;53.480;10.174;2022-09-09T13:20:49;2.50;;;0.67;;
1004;SDS011;491;53.480;10.174;2022-09-09T13:23:16;1.23;;;0.67;;
1004;SDS011;491;53.480;10.174;2022-09-09T13:25:52;3.17;;;0.90;;
1004;SDS011;491;53.480;10.174;2022-09-09T13:28:21;0.60;;;0.20;;
1004;SDS011;491;53.480;10.174;2022-09-09T13:30:56;1.77;;;0.70;;
1004;SDS011;491;53.480;10.174;2022-09-09T13:33:32;3.27;;;1.03;;
1004;SDS011;491;53.480;10.174;2022-09-09T13:36:09;2.63;;;1.17;;
1004;SDS011;491;53.480;10.174;2022-09-09T13:41:21;1.33;;;0.40;;
1004;SDS011;491;53.480;10.174;2022-09-09T13:43:48;1.10;;;0.43;;
1004;SDS011;491;53.480;10.174;2022-09-09T13:48:55;0.90;;;0.30;;
1004;SDS011;491;53.480;10.174;2022-09-09T13:51:28;3.53;;;0.60;;
1004;SDS011;491;53.480;10.174;2022-09-09T13:53:59;2.40;;;0.57;;
1004;SDS011;491;53.480;10.174;2022-09-09T13:56:25;1.60;;;0.97;;
1004;SDS011;491;53.480;10.174;2022-09-09T13:58:51;1.17;;;0.20;;
1004;SDS011;491;53.480;10.174;2022-09-09T14:01:17;3.30;;;0.60;;
1004;SDS011;491;53.480;10.174;2022-09-09T14:03:42;1.60;;;0.80;;
1004;SDS011;491;53.480;10.174;2022-09-09T14:06:08;1.30;;;0.60;;
1004;SDS011;491;53.480;10.174;2022-09-09T14:08:35;0.70;;;0.43;;
1004;SDS011;491;53.480;10.174;2022-09-09T14:11:02;2.30;;;1.23;;
1004;SDS011;491;53.480;10.174;2022-09-09T14:13:28;1.77;;;0.50;;
1004;SDS011;491;53.480;10.174;2022-09-09T14:15:54;1.83;;;1.30;;
1004;SDS011;491;53.480;10.174;2022-09-09T14:18:20;1.73;;;0.80;;
1004;SDS011;491;53.480;10.174;2022-09-09T14:20:47;1.87;;;0.80;;
1004;SDS011;491;53.480;10.174;2022-09-09T14:23:12;3.00;;;0.60;;
1004;SDS011;491;53.480;10.174;2022-09-09T14:25:39;2.30;;;1.10;;
1004;SDS011;491;53.480;10.174;2022-09-09T14:28:07;1.30;;;0.60;;
1004;SDS011;491;53.480;10.174;2022-09-09T14:30:34;1.50;;;0.43;;
1004;SDS011;491;53.480;10.174;2022-09-09T14:32:59;1.23;;;0.87;;
1004;SDS011;491;53.480;10.174;2022-09-09T14:35:25;1.23;;;0.70;;
1004;SDS011;491;53.480;10.174;2022-09-09T14:37:50;2.90;;;1.37;;
1004;SDS011;491;53.480;10.174;2022-09-09T14:40:16;1.20;;;1.07;;
1004;SDS011;491;53.480;10.174;2022-09-09T14:42:42;0.70;;;0.43;;
1004;SDS011;491;53.480;10.174;2022-09-09T14:45:07;1.50;;;0.50;;
1004;SDS011;491;53.480;10.174;2022-09-09T14:47:33;0.80;;;0.70;;
1004;SDS011;491;53.480;10.174;2022-09-09T14:49:58;1.67;;;0.70;;
1004;SDS011;491;53.480;10.174;2022-09-09T14:52:25;2.37;;;0.50;;
1004;SDS011;491;53.480;10.174;2022-09-09T14:54:51;2.10;;;0.70;;
1004;SDS011;491;53.480;10.174;2022-09-09T14:57:16;2.80;;;1.13;;
1004;SDS011;491;53.480;10.174;2022-09-09T14:59:42;2.20;;;0.63;;
1004;SDS011;491;53.480;10.174;2022-09-09T15:02:08;0.73;;;0.33;;
1004;SDS011;491;53.480;10.174;2022-09-09T15:04:34;0.93;;;0.40;;
1004;SDS011;491;53.480;10.174;2022-09-09T15:07:00;1.07;;;0.40;;
1004;SDS011;491;53.480;10.174;2022-09-09T15:09:25;1.53;;;0.20;;
1004;SDS011;491;53.480;10.174;2022-09-09T15:11:51;0.63;;;0.23;;
1004;SDS011;491;53.480;10.174;2022-09-09T15:14:16;0.70;;;0.37;;
1004;SDS011;491;53.480;10.174;2022-09-09T15:16:42;0.90;;;0.20;;
1004;SDS011;491;53.480;10.174;2022-09-09T15:19:07;3.70;;;0.77;;
1004;SDS011;491;53.480;10.174;2022-09-09T15:21:34;0.63;;;0.20;;
1004;SDS011;491;53.480;10.174;2022-09-09T15:24:01;2.20;;;0.43;;
1004;SDS011;491;53.480;10.174;2022-09-09T15:26:27;1.60;;;0.33;;
1004;SDS011;491;53.480;10.174;2022-09-09T15:28:53;2.53;;;0.37;;
1004;SDS011;491;53.480;10.174;2022-09-09T15:31:20;1.17;;;0.40;;
1004;SDS011;491;53.480;10.174;2022-09-09T15:33:47;1.13;;;0.50;;
1004;SDS011;491;53.480;10.174;2022-09-09T15:38:51;1.07;;;0.70;;
1004;SDS011;491;53.480;10.174;2022-09-09T15:41:17;0.80;;;0.40;;
1004;SDS011;491;53.480;10.174;2022-09-09T15:43:44;1.23;;;0.50;;
1004;SDS011;491;53.480;10.174;2022-09-09T15:48:42;1.10;;;0.50;;
1004;SDS011;491;53.480;10.174;2022-09-09T15:51:09;1.87;;;0.30;;
1004;SDS011;491;53.480;10.174;2022-09-09T15:53:35;0.60;;;0.37;;
1004;SDS011;491;53.480;10.174;2022-09-09T15:56:04;2.87;;;0.53;;
1004;SDS011;491;53.480;10.174;2022-09-09T15:58:33;1.37;;;0.70;;
1004;SDS011;491;53.480;10.174;2022-09-09T16:01:05;2.53;;;0.30;;
1004;SDS011;491;53.480;10.174;2022-09-09T16:03:35;1.23;;;0.47;;
1004;SDS011;491;53.480;10.174;2022-09-09T16:06:02;1.60;;;0.57;;
1004;SDS011;491;53.480;10.174;2022-09-09T16:08:32;2.10;;;0.57;;
1004;SDS011;491;53.480;10.174;2022-09-09T16:11:08;1.33;;;0.30;;
1004;SDS011;491;53.480;10.174;2022-09-09T16:13:42;1.10;;;0.63;;
1004;SDS011;491;53.480;10.174;2022-09-09T16:16:12;1.40;;;0.50;;
1004;SDS011;491;53.480;10.174;2022-09-09T16:18:40;0.73;;;0.30;;
1004;SDS011;491;53.480;10.174;2022-09-09T16:21:08;1.57;;;0.97;;
1004;SDS011;491;53.480;10.174;2022-09-09T16:23:39;1.30;;;0.50;;
1004;SDS011;491;53.480;10.174;2022-09-09T16:26:04;3.20;;;0.90;;
1004;SDS011;491;53.480;10.174;2022-09-09T16:28:30;2.60;;;0.60;;
1004;SDS011;491;53.480;10.174;2022-09-09T16:30:56;1.30;;;0.70;;
1004;SDS011;491;53.480;10.174;2022-09-09T16:33:22;1.70;;;0.70;;
1004;SDS011;491;53.480;10.174;2022-09-09T16:35:48;1.90;;;0.83;;
1004;SDS011;491;53.480;10.174;2022-09-09T16:38:14;2.03;;;0.73;;
1004;SDS011;491;53.480;10.174;2022-09-09T16:40:40;1.00;;;0.50;;
1004;SDS011;491;53.480;10.174;2022-09-09T16:43:12;1.47;;;0.83;;
1004;SDS011;491;53.480;10.174;2022-09-09T16:45:46;3.60;;;1.13;;
1004;SDS011;491;53.480;10.174;2022-09-09T16:48:12;1.27;;;0.73;;
1004;SDS011;491;53.480;10.174;2022-09-09T16:50:37;3.27;;;1.17;;
1004;SDS011;491;53.480;10.174;2022-09-09T16:53:04;2.40;;;1.90;;
1004;SDS011;491;53.480;10.174;2022-09-09T16:55:36;2.40;;;0.60;;
1004;SDS011;491;53.480;10.174;2022-09-09T16:58:06;2.40;;;1.00;;
1004;SDS011;491;53.480;10.174;2022-09-09T17:00:34;2.40;;;0.93;;
1004;SDS011;491;53.480;10.174;2022-09-09T17:03:00;2.17;;;1.07;;
1004;SDS011;491;53.480;10.174;2022-09-09T17:05:26;5.67;;;1.23;;
1004;SDS011;491;53.480;10.174;2022-09-09T17:07:51;2.63;;;1.00;;
1004;SDS011;491;53.480;10.174;2022-09-09T17:10:18;2.30;;;1.40;;
1004;SDS011;491;53.480;10.174;2022-09-09T17:12:44;3.03;;;1.50;;
1004;SDS011;491;53.480;10.174;2022-09-09T17:15:10;4.07;;;2.03;;
1004;SDS011;491;53.480;10.174;2022-09-09T17:17:36;3.50;;;1.13;;
1004;SDS011;491;53.480;10.174;2022-09-09T17:20:02;2.80;;;1.10;;
1004;SDS011;491;53.480;10.174;2022-09-09T17:22:28;2.53;;;1.23;;
1004;SDS011;491;53.480;10.174;2022-09-09T17:24:53;2.87;;;1.27;;
1004;SDS011;491;53.480;10.174;2022-09-09T17:27:19;1.77;;;0.87;;
1004;SDS011;491;53.480;10.174;2022-09-09T17:29:45;2.03;;;1.10;;